Terminal Aerodrome Forecast
Issued by NWS Shreveport, LA

Home | Current Version | Previous Version | Text Only | Print | Product List | Glossary On
Versions: 1 2 3 4 5 6 7 8 9 10 11 12 13 14 15 16 17 18 19
000
FTUS44 KSHV 301613 AAA
TAFTYR
TAF AMD
KTYR 301613Z 3016/0112 22008KT P6SM FEW100
     FM301800 22009KT P6SM SCT040 SCT100
     FM302000 22008KT P6SM BKN045
     FM010000 20007KT P6SM FEW050 SCT250
     FM010600 19009KT P6SM SCT250=

USA.gov is the U.S. government's official web portal to all federal, state and local government web resources and services.